sensor_id;sensor_type;location;lat;lon;timestamp;pressure;altitude;pressure_sealevel;temperature;humidity
59757;BME280;45631;51.962;5.974;2023-03-04T00:00:11;102482.03;;;4.75;100.00
59757;BME280;45631;51.962;5.974;2023-03-04T00:02:39;102478.59;;;4.73;100.00
59757;BME280;45631;51.962;5.974;2023-03-04T00:05:08;102482.03;;;4.75;100.00
59757;BME280;45631;51.962;5.974;2023-03-04T00:07:36;102472.38;;;4.83;100.00
59757;BME280;45631;51.962;5.974;2023-03-04T00:10:05;102480.28;;;4.76;100.00
59757;BME280;45631;51.962;5.974;2023-03-04T00:12:34;102480.34;;;4.72;100.00
59757;BME280;45631;51.962;5.974;2023-03-04T00:15:02;102482.97;;;4.71;100.00
59757;BME280;45631;51.962;5.974;2023-03-04T00:17:32;102483.06;;;4.66;100.00
59757;BME280;45631;51.962;5.974;2023-03-04T00:20:00;102484.72;;;4.70;100.00
59757;BME280;45631;51.962;5.974;2023-03-04T00:22:30;102482.09;;;4.72;100.00
59757;BME280;45631;51.962;5.974;2023-03-04T00:24:59;102479.50;;;4.72;100.00
59757;BME280;45631;51.962;5.974;2023-03-04T00:27:27;102481.25;;;4.70;100.00
59757;BME280;45631;51.962;5.974;2023-03-04T00:29:55;102482.13;;;4.69;100.00
59757;BME280;45631;51.962;5.974;2023-03-04T00:32:24;102481.28;;;4.67;100.00
59757;BME280;45631;51.962;5.974;2023-03-04T00:34:53;102474.31;;;4.70;100.00
59757;BME280;45631;51.962;5.974;2023-03-04T00:37:21;102472.50;;;4.74;100.00
59757;BME280;45631;51.962;5.974;2023-03-04T00:39:49;102475.13;;;4.72;100.00
59757;BME280;45631;51.962;5.974;2023-03-04T00:42:18;102477.81;;;4.68;100.00
59757;BME280;45631;51.962;5.974;2023-03-04T00:44:46;102471.69;;;4.69;100.00
59757;BME280;45631;51.962;5.974;2023-03-04T00:47:15;102469.09;;;4.69;100.00
59757;BME280;45631;51.962;5.974;2023-03-04T00:49:43;102471.66;;;4.72;100.00
59757;BME280;45631;51.962;5.974;2023-03-04T00:52:15;102467.31;;;4.72;100.00
59757;BME280;45631;51.962;5.974;2023-03-04T00:54:43;102468.16;;;4.73;100.00
59757;BME280;45631;51.962;5.974;2023-03-04T00:57:11;102470.75;;;4.74;100.00
59757;BME280;45631;51.962;5.974;2023-03-04T00:59:39;102467.31;;;4.72;100.00
59757;BME280;45631;51.962;5.974;2023-03-04T01:02:09;102472.47;;;4.76;100.00
59757;BME280;45631;51.962;5.974;2023-03-04T01:04:38;102469.84;;;4.76;100.00
59757;BME280;45631;51.962;5.974;2023-03-04T01:07:07;102469.88;;;4.74;100.00
59757;BME280;45631;51.962;5.974;2023-03-04T01:09:37;102469.84;;;4.76;100.00
59757;BME280;45631;51.962;5.974;2023-03-04T01:12:05;102472.44;;;4.77;100.00
59757;BME280;45631;51.962;5.974;2023-03-04T01:14:33;102469.06;;;4.72;100.00
59757;BME280;45631;51.962;5.974;2023-03-04T01:17:01;102478.56;;;4.76;100.00
59757;BME280;45631;51.962;5.974;2023-03-04T01:19:30;102469.09;;;4.70;100.00
59757;BME280;45631;51.962;5.974;2023-03-04T01:21:58;102468.16;;;4.73;100.00
59757;BME280;45631;51.962;5.974;2023-03-04T01:24:29;102466.34;;;4.78;100.00
59757;BME280;45631;51.962;5.974;2023-03-04T01:26:58;102466.34;;;4.78;100.00
59757;BME280;45631;51.962;5.974;2023-03-04T01:29:26;102462.91;;;4.76;100.00
59757;BME280;45631;51.962;5.974;2023-03-04T01:31:56;102458.59;;;4.73;100.00
59757;BME280;45631;51.962;5.974;2023-03-04T01:34:24;102456.91;;;4.71;100.00
59757;BME280;45631;51.962;5.974;2023-03-04T01:36:52;102457.81;;;4.68;100.00
59757;BME280;45631;51.962;5.974;2023-03-04T01:39:22;102456.91;;;4.71;100.00
59757;BME280;45631;51.962;5.974;2023-03-04T01:41:51;102450.84;;;4.70;100.00
59757;BME280;45631;51.962;5.974;2023-03-04T01:44:20;102451.75;;;4.68;100.00
59757;BME280;45631;51.962;5.974;2023-03-04T01:46:51;102454.31;;;4.69;100.00
59757;BME280;45631;51.962;5.974;2023-03-04T01:49:20;102444.69;;;4.74;100.00
59757;BME280;45631;51.962;5.974;2023-03-04T01:51:51;102444.84;;;4.65;100.00
59757;BME280;45631;51.962;5.974;2023-03-04T01:54:20;102439.66;;;4.62;100.00
59757;BME280;45631;51.962;5.974;2023-03-04T01:56:50;102443.03;;;4.67;100.00
59757;BME280;45631;51.962;5.974;2023-03-04T01:59:21;102444.72;;;4.71;100.00
59757;BME280;45631;51.962;5.974;2023-03-04T02:01:51;102440.53;;;4.63;100.00
59757;BME280;45631;51.962;5.974;2023-03-04T02:04:22;102435.38;;;4.56;100.00
59757;BME280;45631;51.962;5.974;2023-03-04T02:06:52;102431.06;;;4.57;100.00
59757;BME280;45631;51.962;5.974;2023-03-04T02:09:20;102435.41;;;4.55;100.00
59757;BME280;45631;51.962;5.974;2023-03-04T02:11:49;102427.56;;;4.56;100.00
59757;BME280;45631;51.962;5.974;2023-03-04T02:14:18;102418.81;;;4.62;100.00
59757;BME280;45631;51.962;5.974;2023-03-04T02:16:48;102423.19;;;4.60;100.00
59757;BME280;45631;51.962;5.974;2023-03-04T02:19:23;102421.44;;;4.59;100.00
59757;BME280;45631;51.962;5.974;2023-03-04T02:21:53;102417.09;;;4.61;100.00
59757;BME280;45631;51.962;5.974;2023-03-04T02:24:26;102421.47;;;4.57;100.00
59757;BME280;45631;51.962;5.974;2023-03-04T02:26:57;102420.59;;;4.59;100.00
59757;BME280;45631;51.962;5.974;2023-03-04T02:29:27;102413.59;;;4.64;100.00
59757;BME280;45631;51.962;5.974;2023-03-04T02:31:55;102418.81;;;4.62;100.00
59757;BME280;45631;51.962;5.974;2023-03-04T02:34:26;102409.31;;;4.56;100.00
59757;BME280;45631;51.962;5.974;2023-03-04T02:36:56;102417.09;;;4.61;100.00
59757;BME280;45631;51.962;5.974;2023-03-04T02:39:28;102416.25;;;4.57;100.00
59757;BME280;45631;51.962;5.974;2023-03-04T02:41:59;102413.72;;;4.54;100.00
59757;BME280;45631;51.962;5.974;2023-03-04T02:44:31;102412.72;;;4.62;100.00
59757;BME280;45631;51.962;5.974;2023-03-04T02:47:01;102403.25;;;4.56;100.00
59757;BME280;45631;51.962;5.974;2023-03-04T02:49:30;102397.22;;;4.52;100.00
59757;BME280;45631;51.962;5.974;2023-03-04T02:52:01;102404.91;;;4.62;100.00
59757;BME280;45631;51.962;5.974;2023-03-04T02:54:30;102403.34;;;4.51;100.00
59757;BME280;45631;51.962;5.974;2023-03-04T02:57:01;102395.47;;;4.54;100.00
59757;BME280;45631;51.962;5.974;2023-03-04T02:59:30;102392.00;;;4.52;100.00
59757;BME280;45631;51.962;5.974;2023-03-04T03:01:58;102391.09;;;4.56;100.00
59757;BME280;45631;51.962;5.974;2023-03-04T03:04:26;102389.28;;;4.62;100.00
59757;BME280;45631;51.962;5.974;2023-03-04T03:06:55;102391.09;;;4.56;100.00
59757;BME280;45631;51.962;5.974;2023-03-04T03:09:23;102384.16;;;4.55;100.00
59757;BME280;45631;51.962;5.974;2023-03-04T03:11:51;102379.91;;;4.48;100.00
59757;BME280;45631;51.962;5.974;2023-03-04T03:14:20;102377.25;;;4.53;100.00
59757;BME280;45631;51.962;5.974;2023-03-04T03:16:49;102382.44;;;4.54;100.00
59757;BME280;45631;51.962;5.974;2023-03-04T03:19:17;102382.34;;;4.61;100.00
59757;BME280;45631;51.962;5.974;2023-03-04T03:21:45;102373.63;;;4.62;100.00
59757;BME280;45631;51.962;5.974;2023-03-04T03:24:13;102369.44;;;4.53;100.00
59757;BME280;45631;51.962;5.974;2023-03-04T03:26:42;102369.41;;;4.54;100.00
59757;BME280;45631;51.962;5.974;2023-03-04T03:29:10;102371.16;;;4.55;100.00
59757;BME280;45631;51.962;5.974;2023-03-04T03:31:39;102360.72;;;4.55;100.00
59757;BME280;45631;51.962;5.974;2023-03-04T03:34:07;102364.19;;;4.56;100.00
59757;BME280;45631;51.962;5.974;2023-03-04T03:36:36;102354.56;;;4.60;100.00
59757;BME280;45631;51.962;5.974;2023-03-04T03:39:04;102351.06;;;4.62;100.00
59757;BME280;45631;51.962;5.974;2023-03-04T03:41:32;102362.41;;;4.56;100.00
59757;BME280;45631;51.962;5.974;2023-03-04T03:44:00;102351.25;;;4.48;100.00
59757;BME280;45631;51.962;5.974;2023-03-04T03:46:28;102359.00;;;4.54;100.00
59757;BME280;45631;51.962;5.974;2023-03-04T03:48:58;102361.59;;;4.54;100.00
59757;BME280;45631;51.962;5.974;2023-03-04T03:51:26;102365.94;;;4.55;100.00
59757;BME280;45631;51.962;5.974;2023-03-04T03:53:54;102371.13;;;4.57;100.00
59757;BME280;45631;51.962;5.974;2023-03-04T03:56:22;102359.88;;;4.53;100.00
59757;BME280;45631;51.962;5.974;2023-03-04T03:58:52;102364.22;;;4.53;100.00
59757;BME280;45631;51.962;5.974;2023-03-04T04:01:21;102361.66;;;4.50;100.00
59757;BME280;45631;51.962;5.974;2023-03-04T04:03:49;102370.38;;;4.49;100.00
59757;BME280;45631;51.962;5.974;2023-03-04T04:06:18;102363.41;;;4.49;100.00
59757;BME280;45631;51.962;5.974;2023-03-04T04:08:46;102366.88;;;4.48;100.00
59757;BME280;45631;51.962;5.974;2023-03-04T04:11:17;102368.59;;;4.51;100.00
59757;BME280;45631;51.962;5.974;2023-03-04T04:13:46;102364.13;;;4.59;100.00
59757;BME280;45631;51.962;5.974;2023-03-04T04:16:14;102365.00;;;4.58;100.00
59757;BME280;45631;51.962;5.974;2023-03-04T04:18:42;102368.53;;;4.54;100.00
59757;BME280;45631;51.962;5.974;2023-03-04T04:21:10;102370.25;;;4.55;100.00
59757;BME280;45631;51.962;5.974;2023-03-04T04:23:39;102368.69;;;4.46;100.00
59757;BME280;45631;51.962;5.974;2023-03-04T04:26:07;102362.59;;;4.47;100.00
59757;BME280;45631;51.962;5.974;2023-03-04T04:28:35;102367.78;;;4.49;100.00
59757;BME280;45631;51.962;5.974;2023-03-04T04:31:06;102357.31;;;4.50;100.00
59757;BME280;45631;51.962;5.974;2023-03-04T04:33:35;102359.03;;;4.53;100.00
59757;BME280;45631;51.962;5.974;2023-03-04T04:36:03;102365.16;;;4.49;100.00
59757;BME280;45631;51.962;5.974;2023-03-04T04:38:32;102360.84;;;4.46;100.00
59757;BME280;45631;51.962;5.974;2023-03-04T04:41:01;102359.13;;;4.45;100.00
59757;BME280;45631;51.962;5.974;2023-03-04T04:43:29;102374.84;;;4.40;100.00
59757;BME280;45631;51.962;5.974;2023-03-04T04:45:58;102359.13;;;4.45;100.00
59757;BME280;45631;51.962;5.974;2023-03-04T04:48:27;102362.56;;;4.49;100.00
59757;BME280;45631;51.962;5.974;2023-03-04T04:50:55;102362.41;;;4.56;100.00
59757;BME280;45631;51.962;5.974;2023-03-04T04:53:23;102372.94;;;4.52;100.00
59757;BME280;45631;51.962;5.974;2023-03-04T04:55:51;102374.75;;;4.45;100.00
59757;BME280;45631;51.962;5.974;2023-03-04T04:58:21;102370.44;;;4.44;100.00
59757;BME280;45631;51.962;5.974;2023-03-04T05:00:49;102366.09;;;4.45;100.00
59757;BME280;45631;51.962;5.974;2023-03-04T05:03:17;102369.56;;;4.44;100.00
59757;BME280;45631;51.962;5.974;2023-03-04T05:05:48;102375.63;;;4.47;100.00
59757;BME280;45631;51.962;5.974;2023-03-04T05:08:19;102380.03;;;4.39;100.00
59757;BME280;45631;51.962;5.974;2023-03-04T05:10:47;102370.50;;;4.39;100.00
59757;BME280;45631;51.962;5.974;2023-03-04T05:13:15;102375.78;;;4.36;100.00
59757;BME280;45631;51.962;5.974;2023-03-04T05:15:46;102374.94;;;4.33;100.00
59757;BME280;45631;51.962;5.974;2023-03-04T05:18:14;102379.31;;;4.32;100.00
59757;BME280;45631;51.962;5.974;2023-03-04T05:20:43;102379.31;;;4.29;100.00
59757;BME280;45631;51.962;5.974;2023-03-04T05:23:11;102384.50;;;4.31;100.00
59757;BME280;45631;51.962;5.974;2023-03-04T05:25:39;102377.63;;;4.27;100.00
59757;BME280;45631;51.962;5.974;2023-03-04T05:28:07;102375.03;;;4.28;100.00
59757;BME280;45631;51.962;5.974;2023-03-04T05:30:38;102375.00;;;4.27;100.00
59757;BME280;45631;51.962;5.974;2023-03-04T05:33:08;102365.47;;;4.27;100.00
59757;BME280;45631;51.962;5.974;2023-03-04T05:35:38;102367.22;;;4.28;100.00
59757;BME280;45631;51.962;5.974;2023-03-04T05:38:09;102372.38;;;4.31;100.00
59757;BME280;45631;51.962;5.974;2023-03-04T05:40:38;102369.81;;;4.27;100.00
59757;BME280;45631;51.962;5.974;2023-03-04T05:43:06;102367.25;;;4.23;100.00
59757;BME280;45631;51.962;5.974;2023-03-04T05:45:35;102365.50;;;4.26;100.00
59757;BME280;45631;51.962;5.974;2023-03-04T05:48:04;102370.72;;;4.22;100.00
59757;BME280;45631;51.962;5.974;2023-03-04T05:50:34;102370.75;;;4.24;100.00
59757;BME280;45631;51.962;5.974;2023-03-04T05:53:04;102378.63;;;4.18;100.00
59757;BME280;45631;51.962;5.974;2023-03-04T05:55:32;102387.31;;;4.17;100.00
59757;BME280;45631;51.962;5.974;2023-03-04T05:58:01;102376.00;;;4.19;100.00
59757;BME280;45631;51.962;5.974;2023-03-04T06:00:29;102385.59;;;4.17;100.00
59757;BME280;45631;51.962;5.974;2023-03-04T06:02:57;102384.69;;;4.18;100.00
59757;BME280;45631;51.962;5.974;2023-03-04T06:05:25;102388.97;;;4.22;100.00
59757;BME280;45631;51.962;5.974;2023-03-04T06:07:55;102382.06;;;4.18;100.00
59757;BME280;45631;51.962;5.974;2023-03-04T06:10:23;102383.84;;;4.16;100.00
59757;BME280;45631;51.962;5.974;2023-03-04T06:12:51;102371.75;;;4.12;100.00
59757;BME280;45631;51.962;5.974;2023-03-04T06:15:19;102373.44;;;4.16;100.00
59757;BME280;45631;51.962;5.974;2023-03-04T06:17:47;102380.38;;;4.17;100.00
59757;BME280;45631;51.962;5.974;2023-03-04T06:20:15;102377.78;;;4.16;100.00
59757;BME280;45631;51.962;5.974;2023-03-04T06:22:43;102379.50;;;4.17;100.00
59757;BME280;45631;51.962;5.974;2023-03-04T06:25:13;102382.94;;;4.20;100.00
59757;BME280;45631;51.962;5.974;2023-03-04T06:27:41;102382.97;;;4.19;100.00
59757;BME280;45631;51.962;5.974;2023-03-04T06:30:10;102388.16;;;4.20;100.00
59757;BME280;45631;51.962;5.974;2023-03-04T06:32:40;102390.78;;;4.17;100.00
59757;BME280;45631;51.962;5.974;2023-03-04T06:35:13;102386.50;;;4.12;100.00
59757;BME280;45631;51.962;5.974;2023-03-04T06:37:42;102380.25;;;4.25;100.00
59757;BME280;45631;51.962;5.974;2023-03-04T06:40:12;102385.53;;;4.20;100.00
59757;BME280;45631;51.962;5.974;2023-03-04T06:42:41;102388.19;;;4.17;100.00
59757;BME280;45631;51.962;5.974;2023-03-04T06:45:10;102385.59;;;4.17;100.00
59757;BME280;45631;51.962;5.974;2023-03-04T06:47:38;102384.69;;;4.18;100.00
59757;BME280;45631;51.962;5.974;2023-03-04T06:50:08;102389.91;;;4.17;100.00
59757;BME280;45631;51.962;5.974;2023-03-04T06:52:37;102391.63;;;4.19;100.00
59757;BME280;45631;51.962;5.974;2023-03-04T06:55:07;102388.16;;;4.20;100.00
59757;BME280;45631;51.962;5.974;2023-03-04T06:57:37;102388.97;;;4.24;100.00
59757;BME280;45631;51.962;5.974;2023-03-04T07:00:06;102392.47;;;4.21;100.00
59757;BME280;45631;51.962;5.974;2023-03-04T07:02:34;102390.66;;;4.27;100.00
59757;BME280;45631;51.962;5.974;2023-03-04T07:05:03;102388.88;;;4.30;100.00
59757;BME280;45631;51.962;5.974;2023-03-04T07:07:31;102394.03;;;4.33;100.00
59757;BME280;45631;51.962;5.974;2023-03-04T07:10:03;102389.69;;;4.34;100.00
59757;BME280;45631;51.962;5.974;2023-03-04T07:12:31;102393.16;;;4.34;100.00
59757;BME280;45631;51.962;5.974;2023-03-04T07:15:00;102395.69;;;4.39;100.00
59757;BME280;45631;51.962;5.974;2023-03-04T07:17:29;102397.47;;;4.37;100.00
59757;BME280;45631;51.962;5.974;2023-03-04T07:19:57;102401.78;;;4.38;100.00
59757;BME280;45631;51.962;5.974;2023-03-04T07:22:25;102405.25;;;4.38;100.00
59757;BME280;45631;51.962;5.974;2023-03-04T07:24:53;102400.06;;;4.37;100.00
59757;BME280;45631;51.962;5.974;2023-03-04T07:27:21;102403.44;;;4.44;100.00
59757;BME280;45631;51.962;5.974;2023-03-04T07:29:50;102401.66;;;4.47;100.00
59757;BME280;45631;51.962;5.974;2023-03-04T07:32:19;102404.28;;;4.44;100.00
59757;BME280;45631;51.962;5.974;2023-03-04T07:34:48;102407.81;;;4.43;100.00
59757;BME280;45631;51.962;5.974;2023-03-04T07:37:16;102409.50;;;4.47;100.00
59757;BME280;45631;51.962;5.974;2023-03-04T07:39:44;102409.34;;;4.55;100.00
59757;BME280;45631;51.962;5.974;2023-03-04T07:42:12;102407.53;;;4.60;100.00
59757;BME280;45631;51.962;5.974;2023-03-04T07:44:40;102410.97;;;4.64;100.00
59757;BME280;45631;51.962;5.974;2023-03-04T07:47:08;102414.41;;;4.66;100.00
59757;BME280;45631;51.962;5.974;2023-03-04T07:49:38;102404.78;;;4.71;100.00
59757;BME280;45631;51.962;5.974;2023-03-04T07:52:06;102407.28;;;4.77;100.00
59757;BME280;45631;51.962;5.974;2023-03-04T07:54:34;102403.69;;;4.84;100.00
59757;BME280;45631;51.962;5.974;2023-03-04T07:57:02;102405.38;;;4.88;100.00
59757;BME280;45631;51.962;5.974;2023-03-04T07:59:31;102406.22;;;4.89;100.00
59757;BME280;45631;51.962;5.974;2023-03-04T08:01:59;102407.88;;;4.93;100.00
59757;BME280;45631;51.962;5.974;2023-03-04T08:04:27;102411.16;;;5.04;100.00
59757;BME280;45631;51.962;5.974;2023-03-04T08:06:56;102418.94;;;5.09;100.00
59757;BME280;45631;51.962;5.974;2023-03-04T08:09:25;102414.38;;;5.20;100.00
59757;BME280;45631;51.962;5.974;2023-03-04T08:11:53;102416.16;;;5.20;100.00
59757;BME280;45631;51.962;5.974;2023-03-04T08:14:21;102416.94;;;5.23;100.00
59757;BME280;45631;51.962;5.974;2023-03-04T08:16:52;102417.72;;;5.29;100.00
59757;BME280;45631;51.962;5.974;2023-03-04T08:19:20;102419.44;;;5.30;100.00
59757;BME280;45631;51.962;5.974;2023-03-04T08:21:51;102409.78;;;5.35;100.00
59757;BME280;45631;51.962;5.974;2023-03-04T08:24:23;102409.66;;;5.41;100.00
59757;BME280;45631;51.962;5.974;2023-03-04T08:26:51;102417.50;;;5.41;100.00
59757;BME280;45631;51.962;5.974;2023-03-04T08:29:22;102415.72;;;5.43;100.00
59757;BME280;45631;51.962;5.974;2023-03-04T08:31:52;102414.00;;;5.42;100.00
59757;BME280;45631;51.962;5.974;2023-03-04T08:34:23;102419.13;;;5.48;100.00
59757;BME280;45631;51.962;5.974;2023-03-04T08:36:52;102413.88;;;5.50;100.00
59757;BME280;45631;51.962;5.974;2023-03-04T08:39:20;102419.84;;;5.56;100.00
59757;BME280;45631;51.962;5.974;2023-03-04T08:41:50;102415.44;;;5.58;100.00
59757;BME280;45631;51.962;5.974;2023-03-04T08:44:18;102414.38;;;5.69;100.00
59757;BME280;45631;51.962;5.974;2023-03-04T08:46:46;102415.13;;;5.75;100.00
59757;BME280;45631;51.962;5.974;2023-03-04T08:49:14;102417.53;;;5.85;100.00
59757;BME280;45631;51.962;5.974;2023-03-04T08:51:42;102424.28;;;5.95;100.00
59757;BME280;45631;51.962;5.974;2023-03-04T08:54:11;102416.38;;;6.00;100.00
59757;BME280;45631;51.962;5.974;2023-03-04T08:56:39;102417.94;;;6.10;100.00
59757;BME280;45631;51.962;5.974;2023-03-04T08:59:09;102419.88;;;6.00;100.00
59757;BME280;45631;51.962;5.974;2023-03-04T09:01:37;102419.84;;;6.02;100.00
59757;BME280;45631;51.962;5.974;2023-03-04T09:04:05;102426.59;;;6.11;100.00
59757;BME280;45631;51.962;5.974;2023-03-04T09:06:33;102416.13;;;6.12;100.00
59757;BME280;45631;51.962;5.974;2023-03-04T09:09:02;102417.03;;;6.11;100.00
59757;BME280;45631;51.962;5.974;2023-03-04T09:11:31;102424.88;;;6.11;100.00
59757;BME280;45631;51.962;5.974;2023-03-04T09:13:59;102420.59;;;6.07;100.00
59757;BME280;45631;51.962;5.974;2023-03-04T09:16:28;102420.53;;;6.10;100.00
59757;BME280;45631;51.962;5.974;2023-03-04T09:18:56;102422.38;;;6.05;100.00
59757;BME280;45631;51.962;5.974;2023-03-04T09:21:24;102419.69;;;6.08;100.00
59757;BME280;45631;51.962;5.974;2023-03-04T09:23:52;102424.03;;;6.09;100.00
59757;BME280;45631;51.962;5.974;2023-03-04T09:26:22;102419.22;;;5.87;100.00
59757;BME280;45631;51.962;5.974;2023-03-04T09:28:53;102423.63;;;5.85;100.00
59757;BME280;45631;51.962;5.974;2023-03-04T09:31:22;102421.88;;;5.86;100.00
59757;BME280;45631;51.962;5.974;2023-03-04T09:33:53;102415.66;;;5.91;100.00
59757;BME280;45631;51.962;5.974;2023-03-04T09:36:22;102412.84;;;6.02;100.00
59757;BME280;45631;51.962;5.974;2023-03-04T09:38:50;102412.34;;;6.25;100.00
59757;BME280;45631;51.962;5.974;2023-03-04T09:41:21;102414.19;;;6.22;100.00
59757;BME280;45631;51.962;5.974;2023-03-04T09:43:51;102409.09;;;6.16;100.00
59757;BME280;45631;51.962;5.974;2023-03-04T09:46:27;102411.66;;;6.17;100.00
59757;BME280;45631;51.962;5.974;2023-03-04T09:48:58;102404.72;;;6.18;100.00
59757;BME280;45631;51.962;5.974;2023-03-04T09:51:39;102401.19;;;6.19;100.00
59757;BME280;45631;51.962;5.974;2023-03-04T09:54:10;102397.41;;;6.32;100.00
59757;BME280;45631;51.962;5.974;2023-03-04T09:56:41;102400.81;;;6.36;100.00
59757;BME280;45631;51.962;5.974;2023-03-04T09:59:15;102403.94;;;6.52;100.00
59757;BME280;45631;51.962;5.974;2023-03-04T10:01:47;102394.81;;;6.70;100.00
59757;BME280;45631;51.962;5.974;2023-03-04T10:04:28;102395.31;;;6.84;100.00
59757;BME280;45631;51.962;5.974;2023-03-04T10:06:57;102396.16;;;6.86;100.00
59757;BME280;45631;51.962;5.974;2023-03-04T10:09:29;102393.13;;;7.02;100.00
59757;BME280;45631;51.962;5.974;2023-03-04T10:12:01;102390.47;;;7.05;100.00
59757;BME280;45631;51.962;5.974;2023-03-04T10:14:34;102384.72;;;7.23;100.00
59757;BME280;45631;51.962;5.974;2023-03-04T10:17:11;102388.78;;;7.35;100.00
59757;BME280;45631;51.962;5.974;2023-03-04T10:19:50;102381.84;;;7.34;100.00
59757;BME280;45631;51.962;5.974;2023-03-04T10:22:25;102379.78;;;7.45;100.00
59757;BME280;45631;51.962;5.974;2023-03-04T10:24:57;102385.94;;;7.44;100.00
59757;BME280;45631;51.962;5.974;2023-03-04T10:27:25;102381.19;;;7.57;100.00
59757;BME280;45631;51.962;5.974;2023-03-04T10:29:57;102382.63;;;7.69;100.00
59757;BME280;45631;51.962;5.974;2023-03-04T10:32:26;102373.53;;;7.51;100.00
59757;BME280;45631;51.962;5.974;2023-03-04T10:34:58;102375.16;;;7.55;100.00
59757;BME280;45631;51.962;5.974;2023-03-04T10:37:42;102377.59;;;7.61;100.00
59757;BME280;45631;51.962;5.974;2023-03-04T10:40:18;102378.06;;;7.76;100.00
59757;BME280;45631;51.962;5.974;2023-03-04T10:42:48;102376.16;;;7.81;100.00
59757;BME280;45631;51.962;5.974;2023-03-04T10:45:20;102377.28;;;7.72;100.00
59757;BME280;45631;51.962;5.974;2023-03-04T10:47:52;102374.81;;;7.66;100.00
59757;BME280;45631;51.962;5.974;2023-03-04T10:50:24;102375.16;;;7.55;100.00
59757;BME280;45631;51.962;5.974;2023-03-04T10:52:54;102378.47;;;7.60;100.00
59757;BME280;45631;51.962;5.974;2023-03-04T10:55:25;102375.31;;;7.49;100.00
59757;BME280;45631;51.962;5.974;2023-03-04T10:57:55;102365.09;;;7.40;100.00
59757;BME280;45631;51.962;5.974;2023-03-04T11:00:28;102364.63;;;7.57;100.00
59757;BME280;45631;51.962;5.974;2023-03-04T11:03:22;102356.16;;;7.49;100.00
59757;BME280;45631;51.962;5.974;2023-03-04T11:06:13;102362.81;;;7.59;100.00
59757;BME280;45631;51.962;5.974;2023-03-04T11:08:43;102358.91;;;7.42;100.00
59757;BME280;45631;51.962;5.974;2023-03-04T11:11:22;102352.78;;;7.43;100.00
59757;BME280;45631;51.962;5.974;2023-03-04T11:13:51;102346.66;;;7.44;100.00
59757;BME280;45631;51.962;5.974;2023-03-04T11:16:25;102354.53;;;7.43;100.00
59757;BME280;45631;51.962;5.974;2023-03-04T11:18:55;102347.25;;;7.54;100.00
59757;BME280;45631;51.962;5.974;2023-03-04T11:21:29;102350.63;;;7.58;100.00
59757;BME280;45631;51.962;5.974;2023-03-04T11:23:59;102347.94;;;7.61;100.00
59757;BME280;45631;51.962;5.974;2023-03-04T11:26:35;102343.44;;;7.65;100.00
59757;BME280;45631;51.962;5.974;2023-03-04T11:29:13;102346.44;;;7.52;100.00
59757;BME280;45631;51.962;5.974;2023-03-04T11:31:46;102344.41;;;7.62;100.00
59757;BME280;45631;51.962;5.974;2023-03-04T11:34:24;102341.81;;;7.60;100.00
59757;BME280;45631;51.962;5.974;2023-03-04T11:36:58;102333.59;;;7.74;100.00
59757;BME280;45631;51.962;5.974;2023-03-04T11:39:33;102333.53;;;8.06;100.00
59757;BME280;45631;51.962;5.974;2023-03-04T11:42:15;102323.34;;;8.23;100.00
59757;BME280;45631;51.962;5.974;2023-03-04T11:44:45;102316.19;;;8.28;100.00
59757;BME280;45631;51.962;5.974;2023-03-04T11:47:22;102317.81;;;8.33;100.00
59757;BME280;45631;51.962;5.974;2023-03-04T11:53:10;102321.03;;;8.41;100.00
59757;BME280;45631;51.962;5.974;2023-03-04T11:55:45;102309.66;;;8.42;100.00
59757;BME280;45631;51.962;5.974;2023-03-04T11:58:37;102314.34;;;8.32;100.00
59757;BME280;45631;51.962;5.974;2023-03-04T12:01:09;102305.81;;;8.25;100.00
59757;BME280;45631;51.962;5.974;2023-03-04T12:04:00;102307.63;;;8.23;100.00
59757;BME280;45631;51.962;5.974;2023-03-04T12:06:41;102307.13;;;8.12;100.00
59757;BME280;45631;51.962;5.974;2023-03-04T12:09:23;102305.38;;;8.11;100.00
59757;BME280;45631;51.962;5.974;2023-03-04T12:12:04;102304.50;;;8.12;100.00
59757;BME280;45631;51.962;5.974;2023-03-04T12:14:43;102299.88;;;8.20;100.00
59757;BME280;45631;51.962;5.974;2023-03-04T12:17:27;102294.00;;;8.12;100.00
59757;BME280;45631;51.962;5.974;2023-03-04T12:20:17;102292.72;;;8.25;100.00
59757;BME280;45631;51.962;5.974;2023-03-04T12:22:51;102287.19;;;8.35;100.00
59757;BME280;45631;51.962;5.974;2023-03-04T12:25:43;102282.72;;;8.37;100.00
59757;BME280;45631;51.962;5.974;2023-03-04T12:28:34;102279.84;;;8.46;100.00
59757;BME280;45631;51.962;5.974;2023-03-04T12:31:35;102281.03;;;8.62;100.00
59757;BME280;45631;51.962;5.974;2023-03-04T12:34:42;102287.28;;;8.58;100.00
59757;BME280;45631;51.962;5.974;2023-03-04T12:37:27;102276.16;;;8.52;100.00
59757;BME280;45631;51.962;5.974;2023-03-04T12:43:15;102276.25;;;8.49;100.00
59757;BME280;45631;51.962;5.974;2023-03-04T12:45:53;102274.44;;;8.51;100.00
59757;BME280;45631;51.962;5.974;2023-03-04T12:48:29;102286.19;;;8.39;100.00
59757;BME280;45631;51.962;5.974;2023-03-04T12:51:19;102282.94;;;8.31;100.00
59757;BME280;45631;51.962;5.974;2023-03-04T12:53:58;102285.09;;;8.18;100.00
59757;BME280;45631;51.962;5.974;2023-03-04T12:56:36;102282.75;;;8.10;100.00
59757;BME280;45631;51.962;5.974;2023-03-04T12:59:13;102282.47;;;7.89;100.00
59757;BME280;45631;51.962;5.974;2023-03-04T13:01:48;102279.59;;;7.70;100.00
59757;BME280;45631;51.962;5.974;2023-03-04T13:04:25;102272.69;;;7.68;100.00
59757;BME280;45631;51.962;5.974;2023-03-04T13:07:07;102271.81;;;7.67;100.00
59757;BME280;45631;51.962;5.974;2023-03-04T13:09:40;102265.44;;;7.76;100.00
59757;BME280;45631;51.962;5.974;2023-03-04T13:12:14;102264.81;;;7.68;100.00
59757;BME280;45631;51.962;5.974;2023-03-04T13:15:25;102261.00;;;7.78;100.00